KCVO/CVO METAR and TAF weather

Enter ICAO airport designator
Station Type Date Time Source
KCVO METAR 2019/02/23 16:56 UTC NOAA

KCVO 231656Z AUTO 00000KT 10SM -RA FEW001 BKN043 OVC050 04/03 A3017 RMK AO2 RAB55 SLP220 P0000 T00390033


Station Type Date Time Source
KCVO Decoded METAR 2019/02/23 16:56 UTC NOAA

Corvallis, Corvallis Municipal Airport, OR, United States (KCVO) 44-30N 123-17W
Feb 23, 2019 - 11:56 AM EST / 2019.02.23 1656 UTC
Wind: Calm:0
Visibility: 10 mile(s):0
Sky conditions: overcast
Weather: light rain
Precipitation last hour: A trace
Temperature: 39.0 F (3.9 C)
Dew Point: 37.9 F (3.3 C)
Relative Humidity: 95%
Pressure (altimeter): 30.17 in. Hg (1021 hPa)
ob: KCVO 231656Z AUTO 00000KT 10SM -RA FEW001 BKN043 OVC050 04/03 A3017 RMK AO2 RAB55 SLP220 P0000 T00390033
cycle: 17

Station Type Date Time Source
KCVO TAF UTC NOAA

Error!


Example: see airport list